sensor_id;sensor_type;location;lat;lon;timestamp;temperature;humidity
19033;DHT22;9649;51.042;13.804;2023-11-22T00:03:49;2.40;99.90
19033;DHT22;9649;51.042;13.804;2023-11-22T00:08:53;2.30;99.90
19033;DHT22;9649;51.042;13.804;2023-11-22T00:13:56;2.30;99.90
19033;DHT22;9649;51.042;13.804;2023-11-22T00:18:59;2.40;99.90
19033;DHT22;9649;51.042;13.804;2023-11-22T00:24:04;2.40;99.90
19033;DHT22;9649;51.042;13.804;2023-11-22T00:29:07;2.50;99.90
19033;DHT22;9649;51.042;13.804;2023-11-22T00:34:11;2.40;99.90
19033;DHT22;9649;51.042;13.804;2023-11-22T00:39:15;2.30;99.90
19033;DHT22;9649;51.042;13.804;2023-11-22T00:44:18;2.30;99.90
19033;DHT22;9649;51.042;13.804;2023-11-22T00:49:21;2.20;99.90
19033;DHT22;9649;51.042;13.804;2023-11-22T00:54:25;2.20;99.90
19033;DHT22;9649;51.042;13.804;2023-11-22T00:59:28;2.30;99.90
19033;DHT22;9649;51.042;13.804;2023-11-22T01:04:31;2.20;99.90
19033;DHT22;9649;51.042;13.804;2023-11-22T01:09:38;2.30;99.90
19033;DHT22;9649;51.042;13.804;2023-11-22T01:14:41;2.30;99.90
19033;DHT22;9649;51.042;13.804;2023-11-22T01:19:44;2.40;62.40
19033;DHT22;9649;51.042;13.804;2023-11-22T01:24:48;2.30;86.90
19033;DHT22;9649;51.042;13.804;2023-11-22T01:29:51;2.30;76.60
19033;DHT22;9649;51.042;13.804;2023-11-22T01:34:56;2.20;99.90
19033;DHT22;9649;51.042;13.804;2023-11-22T01:40:02;2.30;99.90
19033;DHT22;9649;51.042;13.804;2023-11-22T01:45:06;2.30;98.40
19033;DHT22;9649;51.042;13.804;2023-11-22T01:50:09;2.30;21.90
19033;DHT22;9649;51.042;13.804;2023-11-22T01:55:14;2.20;91.50
19033;DHT22;9649;51.042;13.804;2023-11-22T02:00:19;2.20;92.40
19033;DHT22;9649;51.042;13.804;2023-11-22T02:05:23;2.20;61.60
19033;DHT22;9649;51.042;13.804;2023-11-22T02:10:27;2.10;64.00
19033;DHT22;9649;51.042;13.804;2023-11-22T02:15:30;2.20;92.60
19033;DHT22;9649;51.042;13.804;2023-11-22T02:20:33;2.20;36.20
19033;DHT22;9649;51.042;13.804;2023-11-22T02:25:37;2.30;30.60
19033;DHT22;9649;51.042;13.804;2023-11-22T02:30:40;2.10;62.30
19033;DHT22;9649;51.042;13.804;2023-11-22T02:35:44;2.10;72.40
19033;DHT22;9649;51.042;13.804;2023-11-22T02:40:48;2.10;70.60
19033;DHT22;9649;51.042;13.804;2023-11-22T02:45:52;2.10;60.30
19033;DHT22;9649;51.042;13.804;2023-11-22T02:50:55;2.10;68.50
19033;DHT22;9649;51.042;13.804;2023-11-22T02:56:00;2.00;99.90
19033;DHT22;9649;51.042;13.804;2023-11-22T03:01:04;2.00;99.90
19033;DHT22;9649;51.042;13.804;2023-11-22T03:06:06;2.10;97.50
19033;DHT22;9649;51.042;13.804;2023-11-22T03:11:11;2.10;34.40
19033;DHT22;9649;51.042;13.804;2023-11-22T03:16:14;2.00;87.60
19033;DHT22;9649;51.042;13.804;2023-11-22T03:21:17;2.00;78.70
19033;DHT22;9649;51.042;13.804;2023-11-22T03:26:21;2.10;90.60
19033;DHT22;9649;51.042;13.804;2023-11-22T03:31:24;2.00;99.90
19033;DHT22;9649;51.042;13.804;2023-11-22T03:36:27;2.10;81.80
19033;DHT22;9649;51.042;13.804;2023-11-22T03:41:31;2.10;90.80
19033;DHT22;9649;51.042;13.804;2023-11-22T03:46:34;2.10;87.40
19033;DHT22;9649;51.042;13.804;2023-11-22T03:51:38;2.10;55.10
19033;DHT22;9649;51.042;13.804;2023-11-22T03:56:43;1.90;98.50
19033;DHT22;9649;51.042;13.804;2023-11-22T04:01:49;2.00;49.80
19033;DHT22;9649;51.042;13.804;2023-11-22T04:06:52;1.90;43.20
19033;DHT22;9649;51.042;13.804;2023-11-22T04:11:57;1.90;98.80
19033;DHT22;9649;51.042;13.804;2023-11-22T04:17:00;2.00;90.70
19033;DHT22;9649;51.042;13.804;2023-11-22T04:22:08;1.90;70.00
19033;DHT22;9649;51.042;13.804;2023-11-22T04:27:13;1.80;88.50
19033;DHT22;9649;51.042;13.804;2023-11-22T04:32:16;2.00;72.40
19033;DHT22;9649;51.042;13.804;2023-11-22T04:37:19;2.00;50.80
19033;DHT22;9649;51.042;13.804;2023-11-22T04:42:24;2.00;24.50
19033;DHT22;9649;51.042;13.804;2023-11-22T04:47:28;1.90;1.00
19033;DHT22;9649;51.042;13.804;2023-11-22T04:52:32;1.90;1.00
19033;DHT22;9649;51.042;13.804;2023-11-22T04:57:36;1.80;10.30
19033;DHT22;9649;51.042;13.804;2023-11-22T05:02:39;1.80;1.00
19033;DHT22;9649;51.042;13.804;2023-11-22T05:07:42;1.90;1.00
19033;DHT22;9649;51.042;13.804;2023-11-22T05:12:47;1.90;1.00
19033;DHT22;9649;51.042;13.804;2023-11-22T05:17:50;1.90;1.00
19033;DHT22;9649;51.042;13.804;2023-11-22T05:22:53;1.80;1.00
19033;DHT22;9649;51.042;13.804;2023-11-22T05:27:57;1.80;1.00
19033;DHT22;9649;51.042;13.804;2023-11-22T05:33:00;1.90;1.00
19033;DHT22;9649;51.042;13.804;2023-11-22T05:38:03;1.90;1.00
19033;DHT22;9649;51.042;13.804;2023-11-22T05:43:07;1.90;1.00
19033;DHT22;9649;51.042;13.804;2023-11-22T05:48:13;1.90;42.60
19033;DHT22;9649;51.042;13.804;2023-11-22T05:53:16;2.00;1.00
19033;DHT22;9649;51.042;13.804;2023-11-22T05:58:23;2.00;1.00
19033;DHT22;9649;51.042;13.804;2023-11-22T06:03:27;1.90;99.90
19033;DHT22;9649;51.042;13.804;2023-11-22T06:08:32;1.80;1.00
19033;DHT22;9649;51.042;13.804;2023-11-22T06:13:37;1.80;99.90
19033;DHT22;9649;51.042;13.804;2023-11-22T06:18:42;1.70;1.00
19033;DHT22;9649;51.042;13.804;2023-11-22T06:23:46;1.70;1.00
19033;DHT22;9649;51.042;13.804;2023-11-22T06:28:54;1.90;99.90
19033;DHT22;9649;51.042;13.804;2023-11-22T06:33:57;1.90;1.00
19033;DHT22;9649;51.042;13.804;2023-11-22T06:39:01;1.90;1.00
19033;DHT22;9649;51.042;13.804;2023-11-22T06:44:07;1.90;60.80
19033;DHT22;9649;51.042;13.804;2023-11-22T06:49:14;1.90;99.90
19033;DHT22;9649;51.042;13.804;2023-11-22T06:54:20;1.80;99.90
19033;DHT22;9649;51.042;13.804;2023-11-22T06:59:25;1.80;99.90
19033;DHT22;9649;51.042;13.804;2023-11-22T07:04:29;1.90;1.00
19033;DHT22;9649;51.042;13.804;2023-11-22T07:09:34;2.00;1.00
19033;DHT22;9649;51.042;13.804;2023-11-22T07:14:40;1.90;99.90
19033;DHT22;9649;51.042;13.804;2023-11-22T07:19:45;1.80;1.00
19033;DHT22;9649;51.042;13.804;2023-11-22T07:24:50;1.90;1.00
19033;DHT22;9649;51.042;13.804;2023-11-22T07:29:58;1.80;1.00
19033;DHT22;9649;51.042;13.804;2023-11-22T07:35:01;1.90;1.00
19033;DHT22;9649;51.042;13.804;2023-11-22T07:40:06;2.00;1.00
19033;DHT22;9649;51.042;13.804;2023-11-22T07:45:13;2.00;99.90
19033;DHT22;9649;51.042;13.804;2023-11-22T07:50:17;2.10;1.00
19033;DHT22;9649;51.042;13.804;2023-11-22T07:55:22;2.00;1.00
19033;DHT22;9649;51.042;13.804;2023-11-22T08:00:27;2.00;1.00
19033;DHT22;9649;51.042;13.804;2023-11-22T08:05:31;2.00;99.90
19033;DHT22;9649;51.042;13.804;2023-11-22T08:10:38;2.00;99.90
19033;DHT22;9649;51.042;13.804;2023-11-22T08:15:44;2.10;99.90
19033;DHT22;9649;51.042;13.804;2023-11-22T08:20:48;2.00;29.50
19033;DHT22;9649;51.042;13.804;2023-11-22T08:25:51;2.00;99.90
19033;DHT22;9649;51.042;13.804;2023-11-22T08:30:56;2.00;99.90
19033;DHT22;9649;51.042;13.804;2023-11-22T08:36:01;2.00;99.90
19033;DHT22;9649;51.042;13.804;2023-11-22T08:41:06;2.00;99.90
19033;DHT22;9649;51.042;13.804;2023-11-22T08:46:11;2.00;99.90
19033;DHT22;9649;51.042;13.804;2023-11-22T08:51:16;2.10;1.00
19033;DHT22;9649;51.042;13.804;2023-11-22T08:56:19;2.20;1.00
19033;DHT22;9649;51.042;13.804;2023-11-22T09:01:23;2.20;1.00
19033;DHT22;9649;51.042;13.804;2023-11-22T09:06:27;2.20;1.00
19033;DHT22;9649;51.042;13.804;2023-11-22T09:11:31;2.40;1.00
19033;DHT22;9649;51.042;13.804;2023-11-22T09:16:38;2.40;1.00
19033;DHT22;9649;51.042;13.804;2023-11-22T09:21:41;2.50;1.00
19033;DHT22;9649;51.042;13.804;2023-11-22T09:26:45;2.80;1.00
19033;DHT22;9649;51.042;13.804;2023-11-22T09:31:49;2.90;1.00
19033;DHT22;9649;51.042;13.804;2023-11-22T09:36:53;3.00;1.00
19033;DHT22;9649;51.042;13.804;2023-11-22T09:41:56;3.10;99.90
19033;DHT22;9649;51.042;13.804;2023-11-22T09:47:02;3.10;99.90
19033;DHT22;9649;51.042;13.804;2023-11-22T09:52:09;3.20;99.90
19033;DHT22;9649;51.042;13.804;2023-11-22T09:57:16;3.30;99.90
19033;DHT22;9649;51.042;13.804;2023-11-22T10:02:21;3.50;46.40
19033;DHT22;9649;51.042;13.804;2023-11-22T10:07:28;3.60;1.00
19033;DHT22;9649;51.042;13.804;2023-11-22T10:12:31;3.70;1.00
19033;DHT22;9649;51.042;13.804;2023-11-22T10:17:39;3.70;1.00
19033;DHT22;9649;51.042;13.804;2023-11-22T10:22:46;3.70;1.00
19033;DHT22;9649;51.042;13.804;2023-11-22T10:27:50;3.60;1.00
19033;DHT22;9649;51.042;13.804;2023-11-22T10:32:54;3.70;1.00
19033;DHT22;9649;51.042;13.804;2023-11-22T10:37:59;3.80;1.00
19033;DHT22;9649;51.042;13.804;2023-11-22T10:43:04;3.90;1.00
19033;DHT22;9649;51.042;13.804;2023-11-22T10:48:09;4.00;1.00
19033;DHT22;9649;51.042;13.804;2023-11-22T10:53:16;4.40;1.00
19033;DHT22;9649;51.042;13.804;2023-11-22T10:58:24;4.50;1.00
19033;DHT22;9649;51.042;13.804;2023-11-22T11:03:30;4.50;1.00
19033;DHT22;9649;51.042;13.804;2023-11-22T11:08:41;4.40;1.00
19033;DHT22;9649;51.042;13.804;2023-11-22T11:13:46;4.20;1.00
19033;DHT22;9649;51.042;13.804;2023-11-22T11:18:52;3.90;1.00
19033;DHT22;9649;51.042;13.804;2023-11-22T11:23:55;3.70;1.00
19033;DHT22;9649;51.042;13.804;2023-11-22T11:29:04;3.70;1.00
19033;DHT22;9649;51.042;13.804;2023-11-22T11:34:10;3.60;1.00
19033;DHT22;9649;51.042;13.804;2023-11-22T11:39:13;3.40;1.00
19033;DHT22;9649;51.042;13.804;2023-11-22T11:44:17;3.50;1.00
19033;DHT22;9649;51.042;13.804;2023-11-22T11:49:22;3.50;1.00
19033;DHT22;9649;51.042;13.804;2023-11-22T11:54:25;3.60;1.00
19033;DHT22;9649;51.042;13.804;2023-11-22T11:59:29;3.70;1.00
19033;DHT22;9649;51.042;13.804;2023-11-22T12:04:35;3.60;1.00
19033;DHT22;9649;51.042;13.804;2023-11-22T12:09:38;3.60;1.00
19033;DHT22;9649;51.042;13.804;2023-11-22T12:14:41;3.60;1.00
19033;DHT22;9649;51.042;13.804;2023-11-22T12:19:46;3.50;1.00
19033;DHT22;9649;51.042;13.804;2023-11-22T12:24:50;3.50;1.00
19033;DHT22;9649;51.042;13.804;2023-11-22T12:29:53;3.60;1.00
19033;DHT22;9649;51.042;13.804;2023-11-22T12:34:57;3.50;1.00
19033;DHT22;9649;51.042;13.804;2023-11-22T12:40:08;3.30;1.00
19033;DHT22;9649;51.042;13.804;2023-11-22T12:45:18;3.20;1.00
19033;DHT22;9649;51.042;13.804;2023-11-22T12:50:36;3.10;1.00
19033;DHT22;9649;51.042;13.804;2023-11-22T12:55:44;3.10;1.00
19033;DHT22;9649;51.042;13.804;2023-11-22T13:00:49;3.20;1.00
19033;DHT22;9649;51.042;13.804;2023-11-22T13:05:54;3.20;1.00
19033;DHT22;9649;51.042;13.804;2023-11-22T13:10:58;3.10;1.00
19033;DHT22;9649;51.042;13.804;2023-11-22T13:16:03;3.20;1.00
19033;DHT22;9649;51.042;13.804;2023-11-22T13:21:08;3.10;1.00
19033;DHT22;9649;51.042;13.804;2023-11-22T13:26:11;3.20;1.00
19033;DHT22;9649;51.042;13.804;2023-11-22T13:31:15;3.20;1.00
19033;DHT22;9649;51.042;13.804;2023-11-22T13:36:19;3.10;1.00
19033;DHT22;9649;51.042;13.804;2023-11-22T13:41:22;3.20;1.00
19033;DHT22;9649;51.042;13.804;2023-11-22T13:46:27;3.20;1.00
19033;DHT22;9649;51.042;13.804;2023-11-22T13:51:31;3.10;1.00
19033;DHT22;9649;51.042;13.804;2023-11-22T13:56:34;3.00;1.00
19033;DHT22;9649;51.042;13.804;2023-11-22T14:01:37;3.00;1.00
19033;DHT22;9649;51.042;13.804;2023-11-22T14:06:43;2.90;1.00
19033;DHT22;9649;51.042;13.804;2023-11-22T14:11:46;2.80;1.00
19033;DHT22;9649;51.042;13.804;2023-11-22T14:16:49;2.50;1.00
19033;DHT22;9649;51.042;13.804;2023-11-22T14:21:53;2.30;1.00
19033;DHT22;9649;51.042;13.804;2023-11-22T14:26:56;2.20;1.00
19033;DHT22;9649;51.042;13.804;2023-11-22T14:32:02;2.10;1.00
19033;DHT22;9649;51.042;13.804;2023-11-22T14:37:06;2.10;1.00
19033;DHT22;9649;51.042;13.804;2023-11-22T14:42:09;1.90;1.00
19033;DHT22;9649;51.042;13.804;2023-11-22T14:47:13;2.10;1.00
19033;DHT22;9649;51.042;13.804;2023-11-22T14:52:22;2.20;1.00
19033;DHT22;9649;51.042;13.804;2023-11-22T14:57:25;2.10;1.00
19033;DHT22;9649;51.042;13.804;2023-11-22T15:02:28;1.90;1.00
19033;DHT22;9649;51.042;13.804;2023-11-22T15:07:32;1.90;1.00
19033;DHT22;9649;51.042;13.804;2023-11-22T15:12:37;1.80;17.80
19033;DHT22;9649;51.042;13.804;2023-11-22T15:17:42;1.70;99.90
19033;DHT22;9649;51.042;13.804;2023-11-22T15:22:46;1.80;99.90
19033;DHT22;9649;51.042;13.804;2023-11-22T15:27:49;1.80;99.90
19033;DHT22;9649;51.042;13.804;2023-11-22T15:32:52;1.70;99.90
19033;DHT22;9649;51.042;13.804;2023-11-22T15:37:57;1.80;99.90
19033;DHT22;9649;51.042;13.804;2023-11-22T15:42:59;1.80;99.90
19033;DHT22;9649;51.042;13.804;2023-11-22T15:48:02;1.70;99.90
19033;DHT22;9649;51.042;13.804;2023-11-22T15:53:07;1.60;99.90
19033;DHT22;9649;51.042;13.804;2023-11-22T15:58:14;1.70;99.90
19033;DHT22;9649;51.042;13.804;2023-11-22T16:03:17;1.80;1.00
19033;DHT22;9649;51.042;13.804;2023-11-22T16:08:22;1.80;1.00
19033;DHT22;9649;51.042;13.804;2023-11-22T16:13:26;1.70;1.00
19033;DHT22;9649;51.042;13.804;2023-11-22T16:18:29;1.60;1.00
19033;DHT22;9649;51.042;13.804;2023-11-22T16:23:33;1.50;1.00
19033;DHT22;9649;51.042;13.804;2023-11-22T16:28:37;1.50;1.00
19033;DHT22;9649;51.042;13.804;2023-11-22T16:33:40;1.50;99.90
19033;DHT22;9649;51.042;13.804;2023-11-22T16:38:44;1.50;59.60
19033;DHT22;9649;51.042;13.804;2023-11-22T16:43:47;1.50;48.70
19033;DHT22;9649;51.042;13.804;2023-11-22T16:48:51;1.40;1.00
19033;DHT22;9649;51.042;13.804;2023-11-22T16:53:57;1.50;39.00
19033;DHT22;9649;51.042;13.804;2023-11-22T16:59:04;1.40;1.00
19033;DHT22;9649;51.042;13.804;2023-11-22T17:04:08;1.60;1.00
19033;DHT22;9649;51.042;13.804;2023-11-22T17:09:12;1.60;1.00
19033;DHT22;9649;51.042;13.804;2023-11-22T17:14:18;1.70;1.00
19033;DHT22;9649;51.042;13.804;2023-11-22T17:19:21;1.70;1.00
19033;DHT22;9649;51.042;13.804;2023-11-22T17:24:25;1.70;1.00
19033;DHT22;9649;51.042;13.804;2023-11-22T17:29:28;1.70;1.00
19033;DHT22;9649;51.042;13.804;2023-11-22T17:34:31;1.70;99.90
19033;DHT22;9649;51.042;13.804;2023-11-22T17:39:35;1.80;99.90
19033;DHT22;9649;51.042;13.804;2023-11-22T17:44:38;1.90;99.90
19033;DHT22;9649;51.042;13.804;2023-11-22T17:49:41;2.00;99.90
19033;DHT22;9649;51.042;13.804;2023-11-22T17:54:45;1.90;99.90
19033;DHT22;9649;51.042;13.804;2023-11-22T17:59:48;1.90;99.90
19033;DHT22;9649;51.042;13.804;2023-11-22T18:04:51;1.80;99.90
19033;DHT22;9649;51.042;13.804;2023-11-22T18:09:56;1.90;99.90
19033;DHT22;9649;51.042;13.804;2023-11-22T18:14:59;1.80;1.00
19033;DHT22;9649;51.042;13.804;2023-11-22T18:20:02;1.90;99.90
19033;DHT22;9649;51.042;13.804;2023-11-22T18:25:12;2.00;99.90
19033;DHT22;9649;51.042;13.804;2023-11-22T18:30:16;2.00;99.90
19033;DHT22;9649;51.042;13.804;2023-11-22T18:35:19;2.00;99.90
19033;DHT22;9649;51.042;13.804;2023-11-22T18:40:24;2.00;1.00
19033;DHT22;9649;51.042;13.804;2023-11-22T18:45:29;1.90;1.00
19033;DHT22;9649;51.042;13.804;2023-11-22T18:50:32;1.90;1.00
19033;DHT22;9649;51.042;13.804;2023-11-22T18:55:37;2.00;1.00
19033;DHT22;9649;51.042;13.804;2023-11-22T19:00:42;2.00;1.00
19033;DHT22;9649;51.042;13.804;2023-11-22T19:05:48;2.00;1.00
19033;DHT22;9649;51.042;13.804;2023-11-22T19:10:55;2.10;1.00
19033;DHT22;9649;51.042;13.804;2023-11-22T19:15:58;2.10;1.00
19033;DHT22;9649;51.042;13.804;2023-11-22T19:21:01;2.10;1.00
19033;DHT22;9649;51.042;13.804;2023-11-22T19:26:07;2.20;99.90
19033;DHT22;9649;51.042;13.804;2023-11-22T19:31:10;2.10;1.00
19033;DHT22;9649;51.042;13.804;2023-11-22T19:36:19;2.10;1.00
19033;DHT22;9649;51.042;13.804;2023-11-22T19:41:24;2.10;1.00
19033;DHT22;9649;51.042;13.804;2023-11-22T19:46:27;2.10;1.00
19033;DHT22;9649;51.042;13.804;2023-11-22T19:51:31;2.10;1.00
19033;DHT22;9649;51.042;13.804;2023-11-22T19:56:36;1.90;1.00
19033;DHT22;9649;51.042;13.804;2023-11-22T20:01:40;1.60;99.90
19033;DHT22;9649;51.042;13.804;2023-11-22T20:06:45;1.60;1.00
19033;DHT22;9649;51.042;13.804;2023-11-22T20:11:50;1.60;1.00
19033;DHT22;9649;51.042;13.804;2023-11-22T20:16:57;1.50;1.00
19033;DHT22;9649;51.042;13.804;2023-11-22T20:22:00;1.50;1.00
19033;DHT22;9649;51.042;13.804;2023-11-22T20:27:05;1.50;1.00
19033;DHT22;9649;51.042;13.804;2023-11-22T20:32:08;1.30;99.90
19033;DHT22;9649;51.042;13.804;2023-11-22T20:37:11;1.30;99.90
19033;DHT22;9649;51.042;13.804;2023-11-22T20:42:15;1.40;99.90
19033;DHT22;9649;51.042;13.804;2023-11-22T20:47:18;1.50;99.90
19033;DHT22;9649;51.042;13.804;2023-11-22T20:52:20;1.50;99.90
19033;DHT22;9649;51.042;13.804;2023-11-22T20:57:25;1.50;99.90
19033;DHT22;9649;51.042;13.804;2023-11-22T21:02:27;1.50;1.00
19033;DHT22;9649;51.042;13.804;2023-11-22T21:07:30;1.40;1.00
19033;DHT22;9649;51.042;13.804;2023-11-22T21:12:35;1.30;64.40
19033;DHT22;9649;51.042;13.804;2023-11-22T21:17:39;1.00;1.00
19033;DHT22;9649;51.042;13.804;2023-11-22T21:22:43;1.00;99.90
19033;DHT22;9649;51.042;13.804;2023-11-22T21:27:47;0.90;1.00
19033;DHT22;9649;51.042;13.804;2023-11-22T21:32:50;1.00;1.00
19033;DHT22;9649;51.042;13.804;2023-11-22T21:37:53;1.10;1.00
19033;DHT22;9649;51.042;13.804;2023-11-22T21:42:57;1.20;1.00
19033;DHT22;9649;51.042;13.804;2023-11-22T21:48:00;1.20;1.00
19033;DHT22;9649;51.042;13.804;2023-11-22T21:53:04;1.10;1.00
19033;DHT22;9649;51.042;13.804;2023-11-22T21:58:08;1.20;99.90
19033;DHT22;9649;51.042;13.804;2023-11-22T22:03:11;1.20;1.00
19033;DHT22;9649;51.042;13.804;2023-11-22T22:08:14;1.10;1.00
19033;DHT22;9649;51.042;13.804;2023-11-22T22:13:18;1.10;1.00
19033;DHT22;9649;51.042;13.804;2023-11-22T22:18:21;1.10;68.20
19033;DHT22;9649;51.042;13.804;2023-11-22T22:23:24;1.10;1.00
19033;DHT22;9649;51.042;13.804;2023-11-22T22:28:30;1.20;1.00
19033;DHT22;9649;51.042;13.804;2023-11-22T22:33:33;1.30;1.00
19033;DHT22;9649;51.042;13.804;2023-11-22T22:38:36;1.60;1.00
19033;DHT22;9649;51.042;13.804;2023-11-22T22:43:40;1.70;1.00
19033;DHT22;9649;51.042;13.804;2023-11-22T22:48:43;1.70;1.00
19033;DHT22;9649;51.042;13.804;2023-11-22T22:53:46;1.70;46.30
19033;DHT22;9649;51.042;13.804;2023-11-22T22:58:52;1.70;99.90
19033;DHT22;9649;51.042;13.804;2023-11-22T23:03:54;1.80;99.90
19033;DHT22;9649;51.042;13.804;2023-11-22T23:08:58;1.80;99.90
19033;DHT22;9649;51.042;13.804;2023-11-22T23:14:02;1.80;1.00
19033;DHT22;9649;51.042;13.804;2023-11-22T23:19:07;1.80;1.00
19033;DHT22;9649;51.042;13.804;2023-11-22T23:24:14;1.80;1.00
19033;DHT22;9649;51.042;13.804;2023-11-22T23:29:20;2.00;99.90
19033;DHT22;9649;51.042;13.804;2023-11-22T23:34:25;1.70;1.00
19033;DHT22;9649;51.042;13.804;2023-11-22T23:39:28;1.80;1.00
19033;DHT22;9649;51.042;13.804;2023-11-22T23:44:32;2.10;1.00
19033;DHT22;9649;51.042;13.804;2023-11-22T23:49:35;2.30;1.00
19033;DHT22;9649;51.042;13.804;2023-11-22T23:54:38;2.20;1.00
19033;DHT22;9649;51.042;13.804;2023-11-22T23:59:42;2.20;1.00
